createdAt,value
2023-02-27T00:03:44.738Z,72.42
2023-02-27T00:08:46.954Z,72.37
2023-02-27T00:13:49.585Z,72.58
2023-02-27T00:18:51.827Z,72.67
2023-02-27T00:23:54.137Z,72.76
2023-02-27T00:28:56.361Z,72.74
2023-02-27T00:33:58.678Z,73.00
2023-02-27T00:39:19.874Z,72.84
2023-02-27T00:44:26.152Z,73.13
2023-02-27T00:49:28.282Z,73.06
2023-02-27T00:54:30.609Z,72.78
2023-02-27T00:59:33.041Z,72.71
2023-02-27T01:04:35.305Z,72.99
2023-02-27T01:09:37.573Z,72.81
2023-02-27T01:14:40.049Z,73.07
2023-02-27T01:19:42.300Z,72.61
2023-02-27T01:24:45.694Z,72.82
2023-02-27T01:29:49.046Z,72.55
2023-02-27T01:34:51.590Z,72.53
2023-02-27T01:39:53.940Z,72.73
2023-02-27T01:45:11.394Z,72.91
2023-02-27T01:50:14.690Z,72.75
2023-02-27T01:55:16.852Z,73.10
2023-02-27T02:00:19.620Z,72.91
2023-02-27T02:05:22.538Z,72.50
2023-02-27T02:10:24.966Z,72.83
2023-02-27T02:15:35.348Z,72.88
2023-02-27T02:21:05.138Z,73.12
2023-02-27T02:26:18.682Z,73.11
2023-02-27T02:31:41.656Z,72.83
2023-02-27T02:37:14.498Z,73.19
2023-02-27T02:42:31.303Z,73.05
2023-02-27T02:47:56.196Z,73.09
2023-02-27T02:53:33.732Z,73.11
2023-02-27T02:58:58.432Z,73.15
2023-02-27T03:04:10.320Z,73.25
2023-02-27T03:09:23.260Z,73.28
2023-02-27T03:15:02.134Z,73.77
2023-02-27T03:20:09.685Z,73.51
2023-02-27T03:25:13.099Z,72.90
2023-02-27T03:30:25.887Z,73.51
2023-02-27T03:36:12.673Z,73.64
2023-02-27T03:41:22.408Z,73.21
2023-02-27T03:46:39.534Z,73.52
2023-02-27T03:51:41.931Z,73.37
2023-02-27T03:56:50.222Z,73.39
2023-02-27T04:01:52.988Z,73.54
2023-02-27T04:07:18.153Z,73.84
2023-02-27T04:12:31.152Z,73.88
2023-02-27T04:17:40.615Z,73.85
2023-02-27T04:22:42.551Z,73.72
2023-02-27T04:28:05.567Z,73.89
2023-02-27T04:33:12.525Z,74.07
2023-02-27T04:38:26.700Z,73.70
2023-02-27T04:43:29.727Z,73.82
2023-02-27T04:48:40.994Z,74.16
2023-02-27T04:53:46.349Z,74.01
2023-02-27T04:58:55.464Z,73.95
2023-02-27T05:04:00.378Z,73.95
2023-02-27T05:09:10.756Z,74.04
2023-02-27T05:14:22.088Z,73.99
2023-02-27T05:19:24.346Z,74.04
2023-02-27T05:24:33.785Z,74.29
2023-02-27T05:29:45.152Z,74.07
2023-02-27T05:35:09.827Z,74.19
2023-02-27T05:40:16.116Z,74.10
2023-02-27T05:45:21.674Z,74.16
2023-02-27T05:50:28.004Z,74.13
2023-02-27T05:55:36.165Z,74.09
2023-02-27T06:00:55.284Z,74.12
2023-02-27T06:05:58.969Z,74.14
2023-02-27T06:11:01.970Z,74.10
2023-02-27T06:16:04.422Z,73.99
2023-02-27T06:21:06.774Z,74.17
2023-02-27T06:26:13.822Z,74.18
2023-02-27T06:31:16.442Z,74.36
2023-02-27T06:36:18.709Z,74.06
2023-02-27T06:41:21.266Z,74.05
2023-02-27T06:46:41.285Z,74.22
2023-02-27T06:51:46.477Z,74.04
2023-02-27T06:56:55.427Z,74.35
2023-02-27T07:01:59.383Z,74.32
2023-02-27T07:07:35.189Z,73.97
2023-02-27T07:12:23.800Z,74.23
2023-02-27T07:17:26.017Z,73.81
2023-02-27T07:22:28.291Z,73.73
2023-02-27T07:27:30.932Z,73.90
2023-02-27T07:32:33.215Z,73.82
2023-02-27T07:37:35.477Z,73.85
2023-02-27T07:42:37.729Z,73.86
2023-02-27T07:47:40.094Z,73.74
2023-02-27T07:52:45.037Z,73.62
2023-02-27T07:58:05.465Z,73.59
2023-02-27T08:03:07.760Z,73.66
2023-02-27T08:08:09.968Z,73.53
2023-02-27T08:13:12.160Z,73.66
2023-02-27T08:18:14.297Z,73.60
2023-02-27T08:23:16.484Z,73.65
2023-02-27T08:28:18.747Z,73.51
2023-02-27T08:33:21.911Z,73.33
2023-02-27T08:38:26.315Z,73.13
2023-02-27T08:43:28.675Z,73.03
2023-02-27T08:48:30.898Z,72.82
2023-02-27T08:53:33.004Z,72.72
2023-02-27T08:58:39.320Z,72.47
2023-02-27T09:03:44.449Z,72.65
2023-02-27T09:08:46.588Z,72.42
2023-02-27T09:13:49.030Z,72.12
2023-02-27T09:18:51.546Z,71.97
2023-02-27T09:23:53.766Z,71.56
2023-02-27T09:28:55.926Z,71.39
2023-02-27T09:33:58.091Z,71.40
2023-02-27T09:39:00.351Z,71.10
2023-02-27T09:44:03.027Z,70.84
2023-02-27T09:49:05.341Z,70.61
2023-02-27T09:54:08.228Z,70.40
2023-02-27T09:59:29.300Z,69.76
2023-02-27T10:05:08.650Z,70.03
2023-02-27T10:10:20.167Z,70.05
2023-02-27T10:15:38.384Z,69.90
2023-02-27T10:20:47.944Z,70.39
2023-02-27T10:25:50.408Z,70.95
2023-02-27T10:30:55.043Z,70.95
2023-02-27T10:35:58.517Z,70.94
2023-02-27T10:41:02.778Z,71.34
2023-02-27T10:46:15.898Z,71.52
2023-02-27T10:51:31.512Z,71.65
2023-02-27T10:56:34.162Z,71.46
2023-02-27T11:02:18.074Z,70.92
2023-02-27T11:07:31.721Z,70.66
2023-02-27T11:12:35.386Z,70.42
2023-02-27T11:17:37.482Z,70.10
2023-02-27T11:22:41.896Z,70.08
2023-02-27T11:27:46.561Z,69.80
2023-02-27T11:32:51.545Z,69.35
2023-02-27T11:37:55.992Z,69.25
2023-02-27T11:43:05.312Z,68.82
2023-02-27T11:48:14.921Z,69.02
2023-02-27T11:53:35.917Z,69.47
2023-02-27T11:58:43.614Z,69.00
2023-02-27T12:04:11.554Z,69.05
2023-02-27T12:09:27.500Z,69.29
2023-02-27T12:14:38.601Z,69.20
2023-02-27T12:19:44.709Z,69.05
2023-02-27T12:24:56.149Z,69.57
2023-02-27T12:30:28.577Z,69.48
2023-02-27T12:35:35.091Z,69.68
2023-02-27T12:40:40.009Z,69.58
2023-02-27T12:46:00.370Z,69.63
2023-02-27T12:51:23.390Z,69.16
2023-02-27T12:56:37.534Z,68.97
2023-02-27T13:01:48.560Z,69.26
2023-02-27T13:06:58.283Z,69.47
2023-02-27T13:12:03.100Z,69.57
2023-02-27T13:17:17.410Z,69.33
2023-02-27T13:22:22.460Z,69.53
2023-02-27T13:27:28.932Z,69.67
2023-02-27T13:32:56.063Z,69.13
2023-02-27T13:38:05.551Z,69.00
2023-02-27T13:43:51.115Z,68.38
2023-02-27T13:49:29.470Z,68.46
2023-02-27T13:54:34.163Z,68.96
2023-02-27T13:59:39.861Z,69.12
2023-02-27T14:04:53.750Z,68.93
2023-02-27T14:10:11.760Z,68.71
2023-02-27T14:15:51.690Z,69.04
2023-02-27T14:20:54.053Z,69.58
2023-02-27T14:26:00.128Z,69.37
2023-02-27T14:31:03.468Z,69.67
2023-02-27T14:36:08.704Z,69.41
2023-02-27T14:41:27.523Z,69.72
2023-02-27T14:46:41.979Z,69.89
2023-02-27T14:51:44.648Z,69.86
2023-02-27T14:57:01.591Z,69.47
2023-02-27T15:02:22.164Z,69.68
2023-02-27T15:07:31.617Z,69.78
2023-02-27T15:12:37.914Z,70.17
2023-02-27T15:17:46.418Z,70.09
2023-02-27T15:22:48.632Z,70.18
2023-02-27T15:27:50.996Z,70.06
2023-02-27T15:32:55.673Z,70.07
2023-02-27T15:38:02.787Z,70.23
2023-02-27T15:43:05.371Z,70.03
2023-02-27T15:48:07.727Z,70.39
2023-02-27T15:53:17.333Z,70.47
2023-02-27T15:58:25.442Z,70.43
2023-02-27T16:03:33.267Z,70.45
2023-02-27T16:08:35.498Z,70.62
2023-02-27T16:13:39.293Z,70.72
2023-02-27T16:18:47.916Z,70.62
2023-02-27T16:23:50.586Z,70.75
2023-02-27T16:28:56.756Z,70.63
2023-02-27T16:34:01.372Z,70.55
2023-02-27T16:39:06.231Z,70.94
2023-02-27T16:44:08.472Z,70.86
2023-02-27T16:49:29.333Z,70.70
2023-02-27T16:54:31.616Z,70.77
2023-02-27T16:59:40.112Z,70.66
2023-02-27T17:04:48.308Z,70.30
2023-02-27T17:09:52.909Z,69.94
2023-02-27T17:14:56.031Z,69.73
2023-02-27T17:19:58.255Z,69.62
2023-02-27T17:25:00.875Z,69.41
2023-02-27T17:30:04.981Z,69.08
2023-02-27T17:35:08.204Z,68.95
2023-02-27T17:40:14.531Z,69.04
2023-02-27T17:45:17.043Z,69.26
2023-02-27T17:50:22.489Z,68.98
2023-02-27T17:55:24.660Z,69.19
2023-02-27T18:00:26.844Z,69.07
2023-02-27T18:05:29.045Z,69.21
2023-02-27T18:10:31.487Z,68.88
2023-02-27T18:15:33.766Z,69.06
2023-02-27T18:20:36.338Z,69.26
2023-02-27T18:25:38.731Z,69.08
2023-02-27T18:30:43.867Z,69.14
2023-02-27T18:35:49.541Z,69.37
2023-02-27T18:40:51.690Z,69.27
2023-02-27T18:45:53.837Z,69.29
2023-02-27T18:51:00.850Z,69.36
2023-02-27T18:56:05.118Z,69.55
2023-02-27T19:01:08.746Z,69.64
2023-02-27T19:06:10.853Z,69.54
2023-02-27T19:11:33.583Z,69.52
2023-02-27T19:16:36.031Z,69.81
2023-02-27T19:21:38.665Z,69.72
2023-02-27T19:26:41.247Z,69.56
2023-02-27T19:31:44.886Z,69.56
2023-02-27T19:36:47.297Z,69.86
2023-02-27T19:41:49.677Z,69.84
2023-02-27T19:46:53.327Z,69.94
2023-02-27T19:51:55.914Z,70.01
2023-02-27T19:56:58.066Z,69.94
2023-02-27T20:02:00.539Z,69.95
2023-02-27T20:07:02.780Z,69.97
2023-02-27T20:12:05.439Z,70.00
2023-02-27T20:17:08.282Z,70.20
2023-02-27T20:22:11.241Z,70.01
2023-02-27T20:27:15.354Z,70.38
2023-02-27T20:32:17.877Z,70.32
2023-02-27T20:37:20.164Z,70.33
2023-02-27T20:42:22.314Z,70.53
2023-02-27T20:47:24.523Z,70.34
2023-02-27T20:52:28.110Z,70.42
2023-02-27T20:57:30.311Z,70.29
2023-02-27T21:02:32.447Z,70.35
2023-02-27T21:07:34.600Z,70.74
2023-02-27T21:12:37.112Z,70.54
2023-02-27T21:17:39.228Z,70.68
2023-02-27T21:22:41.338Z,70.79
2023-02-27T21:27:43.471Z,70.69
2023-02-27T21:32:45.742Z,70.73
2023-02-27T21:37:48.334Z,70.61
2023-02-27T21:42:53.134Z,70.70
2023-02-27T21:47:55.406Z,71.12
2023-02-27T21:52:57.562Z,71.11
2023-02-27T21:57:59.745Z,71.09
2023-02-27T22:03:01.994Z,71.42
2023-02-27T22:08:04.429Z,71.20
2023-02-27T22:13:06.597Z,71.34
2023-02-27T22:18:09.176Z,71.39
2023-02-27T22:23:11.414Z,71.60
2023-02-27T22:28:13.615Z,71.53
2023-02-27T22:33:16.056Z,71.37
2023-02-27T22:38:18.337Z,71.36
2023-02-27T22:43:20.573Z,71.39
2023-02-27T22:48:22.848Z,71.22
2023-02-27T22:53:25.105Z,71.43
2023-02-27T22:58:27.421Z,71.72
2023-02-27T23:03:30.126Z,71.68
2023-02-27T23:08:32.386Z,71.91
2023-02-27T23:13:34.743Z,71.68
2023-02-27T23:18:38.780Z,71.77
2023-02-27T23:23:41.060Z,71.83
2023-02-27T23:28:43.376Z,71.92
2023-02-27T23:33:45.981Z,72.08
2023-02-27T23:38:48.217Z,72.17
2023-02-27T23:43:53.993Z,72.32
2023-02-27T23:48:59.720Z,72.36
2023-02-27T23:54:01.953Z,72.37
2023-02-27T23:59:05.961Z,72.08
